Viejo San Juan, Puerto Rico
Current Conditions -  °F | °C
As of 3:56 AM on Friday 21 Nov 2014 (Local Time) from TJSJ Reporting Station
Scattered Clouds Scattered Clouds  
Wind Chill: 26°   Ceiling: Unl
Heat Index: 28°   Visibility: 10mi
Dew Point: 23°   Wind: 0mph
Humidity: 82%   Direction: NA
Pressure: 29.98"   Gusts: NA
Location:  18.4465°N, 66.0984°W
Report Text: TJSJ 210756Z 00000KT 10SM FEW026 SCT037 SCT060 26/23 A2998 RMK AO2 SLP150 T02610228
Loading
Personal Weather Stations






























Interactive Weather Map New forecast layout! Learn more

10-Day Weather Forecast

Advertisements
Track Severe Weather on mobile